createdAt,value
2023-05-12T00:01:11.333Z,13.57
2023-05-12T00:03:41.457Z,13.56
2023-05-12T00:06:12.654Z,13.57
2023-05-12T00:08:45.224Z,13.52
2023-05-12T00:11:15.212Z,13.42
2023-05-12T00:13:45.373Z,13.51
2023-05-12T00:16:17.565Z,13.52
2023-05-12T00:18:47.900Z,13.43
2023-05-12T00:21:17.961Z,13.47
2023-05-12T00:23:50.682Z,13.38
2023-05-12T00:26:21.187Z,13.32
2023-05-12T00:28:51.328Z,13.27
2023-05-12T00:31:21.555Z,13.43
2023-05-12T00:33:51.551Z,13.41
2023-05-12T00:36:21.508Z,13.42
2023-05-12T00:38:54.540Z,13.35
2023-05-12T00:41:24.628Z,13.30
2023-05-12T00:43:54.785Z,13.24
2023-05-12T00:46:25.022Z,13.31
2023-05-12T00:48:55.690Z,13.30
2023-05-12T00:51:27.338Z,13.23
2023-05-12T00:54:01.258Z,13.30
2023-05-12T00:56:35.431Z,13.35
2023-05-12T00:59:06.181Z,13.39
2023-05-12T01:01:38.055Z,13.29
2023-05-12T01:04:08.914Z,13.28
2023-05-12T01:06:46.433Z,13.37
2023-05-12T01:09:20.237Z,13.29
2023-05-12T01:11:50.401Z,13.21
2023-05-12T01:14:21.850Z,13.27
2023-05-12T01:16:55.733Z,13.33
2023-05-12T01:19:41.433Z,13.28
2023-05-12T01:22:14.844Z,13.16
2023-05-12T01:24:51.100Z,13.25
2023-05-12T01:27:26.398Z,13.29
2023-05-12T01:30:01.083Z,13.27
2023-05-12T01:32:34.063Z,13.33
2023-05-12T01:35:04.040Z,13.16
2023-05-12T01:37:36.051Z,13.15
2023-05-12T01:40:09.029Z,13.09
2023-05-12T01:42:42.994Z,13.23
2023-05-12T01:45:14.743Z,13.13
2023-05-12T01:47:44.914Z,13.15
2023-05-12T01:50:15.148Z,13.23
2023-05-12T01:52:46.401Z,13.22
2023-05-12T01:55:18.633Z,13.15
2023-05-12T01:57:56.436Z,13.21
2023-05-12T02:00:27.369Z,13.25
2023-05-12T02:02:59.851Z,13.24
2023-05-12T02:05:29.962Z,13.15
2023-05-12T02:08:00.162Z,13.19
2023-05-12T02:10:30.642Z,13.21
2023-05-12T02:13:03.236Z,13.23
2023-05-12T02:15:34.955Z,13.30
2023-05-12T02:18:05.136Z,13.27
2023-05-12T02:20:35.517Z,13.17
2023-05-12T02:23:05.924Z,13.23
2023-05-12T02:25:36.799Z,13.18
2023-05-12T02:28:11.093Z,13.25
2023-05-12T02:30:48.792Z,13.25
2023-05-12T02:33:19.268Z,13.29
2023-05-12T02:35:49.776Z,13.26
2023-05-12T02:38:19.924Z,13.25
2023-05-12T02:40:50.276Z,13.23
2023-05-12T02:43:23.040Z,13.24
2023-05-12T02:45:53.201Z,13.20
2023-05-12T02:48:23.775Z,13.26
2023-05-12T02:50:53.966Z,13.16
2023-05-12T02:53:23.942Z,13.15
2023-05-12T02:55:53.944Z,13.26
2023-05-12T02:58:26.636Z,13.31
2023-05-12T03:01:06.663Z,13.16
2023-05-12T03:03:39.743Z,13.18
2023-05-12T03:06:10.428Z,13.23
2023-05-12T03:08:40.524Z,13.07
2023-05-12T03:11:10.733Z,13.09
2023-05-12T03:13:43.259Z,13.17
2023-05-12T03:16:13.210Z,13.26
2023-05-12T03:18:43.741Z,13.20
2023-05-12T03:21:14.466Z,13.21
2023-05-12T03:23:44.761Z,13.12
2023-05-12T03:26:14.715Z,13.11
2023-05-12T03:28:47.332Z,13.15
2023-05-12T03:31:17.270Z,13.14
2023-05-12T03:33:47.379Z,13.17
2023-05-12T03:36:17.402Z,13.13
2023-05-12T03:38:47.383Z,13.10
2023-05-12T03:41:17.315Z,12.98
2023-05-12T03:43:50.086Z,13.05
2023-05-12T03:46:20.068Z,13.13
2023-05-12T03:48:50.096Z,13.05
2023-05-12T03:51:20.089Z,13.01
2023-05-12T03:53:50.122Z,13.01
2023-05-12T03:56:20.298Z,13.13
2023-05-12T03:58:53.451Z,13.14
2023-05-12T04:01:23.738Z,13.03
2023-05-12T04:03:53.900Z,13.05
2023-05-12T04:06:24.190Z,13.07
2023-05-12T04:08:54.084Z,13.11
2023-05-12T04:11:24.010Z,13.22
2023-05-12T04:13:56.962Z,13.19
2023-05-12T04:16:27.030Z,13.17
2023-05-12T04:18:57.601Z,13.13
2023-05-12T04:21:27.688Z,13.21
2023-05-12T04:23:58.047Z,13.12
2023-05-12T04:26:30.384Z,13.04
2023-05-12T04:29:02.987Z,13.08
2023-05-12T04:31:33.004Z,13.12
2023-05-12T04:34:03.740Z,13.13
2023-05-12T04:36:34.820Z,13.15
2023-05-12T04:39:05.534Z,13.12
2023-05-12T04:41:36.590Z,13.14
2023-05-12T04:44:09.682Z,13.15
2023-05-12T04:46:39.676Z,13.17
2023-05-12T04:49:09.740Z,13.20
2023-05-12T04:51:43.029Z,13.18
2023-05-12T04:54:13.520Z,13.29
2023-05-12T04:56:43.654Z,13.32
2023-05-12T04:59:18.437Z,13.38
2023-05-12T05:01:51.299Z,13.48
2023-05-12T05:04:21.525Z,13.38
2023-05-12T05:06:52.042Z,13.33
2023-05-12T05:09:22.571Z,13.37
2023-05-12T05:11:52.933Z,13.42
2023-05-12T05:14:26.134Z,13.60
2023-05-12T05:16:57.203Z,13.48
2023-05-12T05:19:39.131Z,13.44
2023-05-12T05:22:14.946Z,13.40
2023-05-12T05:24:45.281Z,13.39
2023-05-12T05:27:15.520Z,13.50
2023-05-12T05:29:49.509Z,13.70
2023-05-12T05:32:22.811Z,13.68
2023-05-12T05:34:52.874Z,13.60
2023-05-12T05:37:22.950Z,13.73
2023-05-12T05:39:53.160Z,13.62
2023-05-12T05:42:23.119Z,13.66
2023-05-12T05:44:56.165Z,13.82
2023-05-12T05:47:28.396Z,13.77
2023-05-12T05:49:58.373Z,13.84
2023-05-12T05:52:28.439Z,13.94
2023-05-12T05:54:58.466Z,14.13
2023-05-12T05:57:30.701Z,14.23
2023-05-12T06:00:05.313Z,14.38
2023-05-12T06:02:44.553Z,14.52
2023-05-12T06:05:18.763Z,14.58
2023-05-12T06:07:48.860Z,14.45
2023-05-12T06:10:19.045Z,14.61
2023-05-12T06:12:50.513Z,14.76
2023-05-12T06:15:26.090Z,14.93
2023-05-12T06:17:56.146Z,14.89
2023-05-12T06:20:26.476Z,14.98
2023-05-12T06:22:56.481Z,15.11
2023-05-12T06:25:27.117Z,15.09
2023-05-12T06:27:57.112Z,15.01
2023-05-12T06:30:29.825Z,14.94
2023-05-12T06:32:59.826Z,15.08
2023-05-12T06:35:31.004Z,15.09
2023-05-12T06:38:01.080Z,15.26
2023-05-12T06:40:31.060Z,15.17
2023-05-12T06:43:01.120Z,15.28
2023-05-12T06:45:33.707Z,15.13
2023-05-12T06:48:06.152Z,15.23
2023-05-12T06:50:36.220Z,15.07
2023-05-12T06:53:08.118Z,15.28
2023-05-12T06:55:38.093Z,15.60
2023-05-12T06:58:08.014Z,15.36
2023-05-12T07:00:40.583Z,15.57
2023-05-12T07:03:10.873Z,15.65
2023-05-12T07:05:41.457Z,15.68
2023-05-12T07:08:14.603Z,15.82
2023-05-12T07:10:44.778Z,15.49
2023-05-12T07:13:14.834Z,15.79
2023-05-12T07:15:48.125Z,15.90
2023-05-12T07:18:18.033Z,15.97
2023-05-12T07:20:49.298Z,16.01
2023-05-12T07:23:19.382Z,15.92
2023-05-12T07:25:49.555Z,16.11
2023-05-12T07:28:19.686Z,16.11
2023-05-12T07:30:52.509Z,16.19
2023-05-12T07:33:22.718Z,16.00
2023-05-12T07:35:52.763Z,15.97
2023-05-12T07:38:22.817Z,16.50
2023-05-12T07:40:52.862Z,16.58
2023-05-12T07:43:22.861Z,16.34
2023-05-12T07:45:56.273Z,16.14
2023-05-12T07:48:26.233Z,16.12
2023-05-12T07:50:56.231Z,16.54
2023-05-12T07:53:26.240Z,16.37
2023-05-12T07:55:56.381Z,16.60
2023-05-12T07:58:26.452Z,16.36
2023-05-12T08:01:00.384Z,16.27
2023-05-12T08:03:30.458Z,16.56
2023-05-12T08:06:00.501Z,16.41
2023-05-12T08:08:30.470Z,16.39
2023-05-12T08:11:00.420Z,16.37
2023-05-12T08:13:30.371Z,16.50
2023-05-12T08:16:02.932Z,16.48
2023-05-12T08:18:32.964Z,16.47
2023-05-12T08:21:02.890Z,16.63
2023-05-12T08:23:32.826Z,16.96
2023-05-12T08:26:02.776Z,16.70
2023-05-12T08:28:33.035Z,16.58
2023-05-12T08:31:06.014Z,16.26
2023-05-12T08:33:38.686Z,16.29
2023-05-12T08:36:09.180Z,16.48
2023-05-12T08:38:39.191Z,16.31
2023-05-12T08:41:18.023Z,16.40
2023-05-12T08:43:52.741Z,16.41
2023-05-12T08:46:26.886Z,16.30
2023-05-12T08:48:58.389Z,16.52
2023-05-12T08:51:30.913Z,16.44
2023-05-12T08:54:01.262Z,16.59
2023-05-12T08:59:06.907Z,16.87
2023-05-12T09:01:43.089Z,16.89
2023-05-12T09:04:13.628Z,17.09
2023-05-12T09:06:44.231Z,16.64
2023-05-12T09:09:16.867Z,16.65
2023-05-12T09:11:47.145Z,16.89
2023-05-12T09:14:25.845Z,16.87
2023-05-12T09:17:04.155Z,16.67
2023-05-12T09:19:35.248Z,16.81
2023-05-12T09:22:05.334Z,17.08
2023-05-12T09:24:37.510Z,17.39
2023-05-12T09:27:08.362Z,17.18
2023-05-12T09:29:45.299Z,17.69
2023-05-12T09:32:20.708Z,17.29
2023-05-12T09:34:54.614Z,17.51
2023-05-12T09:37:34.151Z,17.43
2023-05-12T09:40:04.891Z,17.39
2023-05-12T09:42:36.841Z,17.21
2023-05-12T09:45:09.515Z,17.19
2023-05-12T09:47:44.930Z,17.28
2023-05-12T09:50:14.941Z,17.28
2023-05-12T09:52:45.101Z,16.52
2023-05-12T09:55:15.958Z,16.58
2023-05-12T09:57:47.419Z,16.35
2023-05-12T10:00:36.564Z,16.21
2023-05-12T10:03:17.741Z,15.99
2023-05-12T10:05:52.432Z,16.23
2023-05-12T10:08:27.907Z,15.78
2023-05-12T10:11:00.492Z,15.82
2023-05-12T10:13:31.630Z,15.86
2023-05-12T10:16:02.855Z,15.86
2023-05-12T10:18:36.776Z,15.95
2023-05-12T10:21:07.010Z,15.74
2023-05-12T10:23:38.653Z,15.82
2023-05-12T10:26:09.104Z,15.90
2023-05-12T10:28:39.037Z,15.86
2023-05-12T10:31:10.589Z,15.78
2023-05-12T10:33:43.190Z,15.97
2023-05-12T10:36:20.961Z,15.96
2023-05-12T10:38:52.532Z,16.30
2023-05-12T10:41:33.394Z,16.35
2023-05-12T10:44:04.185Z,16.54
2023-05-12T10:46:34.352Z,16.53
2023-05-12T10:49:12.569Z,16.67
2023-05-12T10:51:51.711Z,17.12
2023-05-12T10:54:23.904Z,17.39
2023-05-12T10:56:55.415Z,17.17
2023-05-12T10:59:28.065Z,17.70
2023-05-12T11:02:05.365Z,17.75
2023-05-12T11:04:44.917Z,17.73
2023-05-12T11:07:17.670Z,18.06
2023-05-12T11:09:58.580Z,18.17
2023-05-12T11:12:33.010Z,18.07
2023-05-12T11:15:04.516Z,18.16
2023-05-12T11:17:36.191Z,17.81
2023-05-12T11:20:10.116Z,17.83
2023-05-12T11:22:40.259Z,18.04
2023-05-12T11:25:14.785Z,18.16
2023-05-12T11:27:50.852Z,18.05
2023-05-12T11:30:20.815Z,17.89
2023-05-12T11:32:51.041Z,18.17
2023-05-12T11:35:24.024Z,18.59
2023-05-12T11:37:53.995Z,18.39
2023-05-12T11:40:25.851Z,18.34
2023-05-12T11:42:56.356Z,19.38
2023-05-12T11:45:29.983Z,19.19
2023-05-12T11:48:11.442Z,19.53
2023-05-12T11:50:47.823Z,19.01
2023-05-12T11:53:20.000Z,18.88
2023-05-12T11:55:51.281Z,18.91
2023-05-12T11:58:26.078Z,18.95
2023-05-12T12:00:57.339Z,19.17
2023-05-12T12:03:27.942Z,18.86
2023-05-12T12:06:06.935Z,18.85
2023-05-12T12:08:40.656Z,18.81
2023-05-12T12:11:11.643Z,19.01
2023-05-12T12:13:41.679Z,18.63
2023-05-12T12:16:13.538Z,19.12
2023-05-12T12:18:44.881Z,19.05
2023-05-12T12:21:18.937Z,18.86
2023-05-12T12:23:51.385Z,19.02
2023-05-12T12:26:23.215Z,18.70
2023-05-12T12:28:53.282Z,18.98
2023-05-12T12:31:23.246Z,20.24
2023-05-12T12:33:53.415Z,20.25
2023-05-12T12:36:26.015Z,20.94
2023-05-12T12:38:55.933Z,22.71
2023-05-12T12:41:25.967Z,22.31
2023-05-12T12:43:55.973Z,23.59
2023-05-12T12:46:25.996Z,23.59
2023-05-12T12:48:57.430Z,22.84
2023-05-12T12:51:44.513Z,23.36
2023-05-12T12:54:15.352Z,23.28
2023-05-12T12:56:46.115Z,22.87
2023-05-12T12:59:16.157Z,22.12
2023-05-12T13:01:46.110Z,21.87
2023-05-12T13:04:17.278Z,21.49
2023-05-12T13:06:49.904Z,21.01
2023-05-12T13:09:20.247Z,21.19
2023-05-12T13:11:50.440Z,20.91
2023-05-12T13:14:21.669Z,20.54
2023-05-12T13:16:52.997Z,20.92
2023-05-12T13:19:23.048Z,21.23
2023-05-12T13:21:55.665Z,20.93
2023-05-12T13:24:25.693Z,20.75
2023-05-12T13:26:55.687Z,20.37
2023-05-12T13:29:25.603Z,19.85
2023-05-12T13:31:55.744Z,19.55
2023-05-12T13:34:26.062Z,19.02
2023-05-12T13:36:59.261Z,18.78
2023-05-12T13:39:29.356Z,18.40
2023-05-12T13:42:00.000Z,18.33
2023-05-12T13:44:30.136Z,18.49
2023-05-12T13:47:00.273Z,18.51
2023-05-12T13:49:30.260Z,19.09
2023-05-12T13:52:02.946Z,19.88
2023-05-12T13:54:34.247Z,21.33
2023-05-12T13:57:04.751Z,23.07
2023-05-12T13:59:35.256Z,22.73
2023-05-12T14:02:05.708Z,24.04
2023-05-12T14:04:35.702Z,25.27
2023-05-12T14:07:09.011Z,25.13
2023-05-12T14:09:38.988Z,25.50
2023-05-12T14:12:10.106Z,25.16
2023-05-12T14:14:40.059Z,22.26
2023-05-12T14:17:10.101Z,21.06
2023-05-12T14:19:40.000Z,20.57
2023-05-12T14:22:22.323Z,19.85
2023-05-12T14:24:56.303Z,19.75
2023-05-12T14:27:26.379Z,19.42
2023-05-12T14:29:56.357Z,19.41
2023-05-12T14:32:26.408Z,19.38
2023-05-12T14:34:56.360Z,19.35
2023-05-12T14:37:28.840Z,19.17
2023-05-12T14:39:58.860Z,19.82
2023-05-12T14:42:30.323Z,21.34
2023-05-12T14:45:00.285Z,20.76
2023-05-12T14:47:30.335Z,22.38
2023-05-12T14:50:00.290Z,23.33
2023-05-12T14:52:38.419Z,22.75
2023-05-12T14:55:12.212Z,21.32
2023-05-12T14:57:43.105Z,22.33
2023-05-12T15:00:16.182Z,23.75
2023-05-12T15:02:47.859Z,23.72
2023-05-12T15:05:18.246Z,22.55
2023-05-12T15:07:50.862Z,21.96
2023-05-12T15:10:20.998Z,20.89
2023-05-12T15:12:51.064Z,20.37
2023-05-12T15:15:21.332Z,19.93
2023-05-12T15:17:51.655Z,19.73
2023-05-12T15:20:21.914Z,19.44
2023-05-12T15:22:55.162Z,20.20
2023-05-12T15:25:25.180Z,20.63
2023-05-12T15:27:55.169Z,20.37
2023-05-12T15:30:25.306Z,20.14
2023-05-12T15:32:55.350Z,20.04
2023-05-12T15:35:27.209Z,20.23
2023-05-12T15:37:59.717Z,20.22
2023-05-12T15:40:30.966Z,19.71
2023-05-12T15:43:01.366Z,19.55
2023-05-12T15:45:31.565Z,19.67
2023-05-12T15:48:01.632Z,19.69
2023-05-12T15:50:31.622Z,19.87
2023-05-12T15:53:04.121Z,19.69
2023-05-12T15:55:34.115Z,20.21
2023-05-12T15:58:05.538Z,19.70
2023-05-12T16:00:35.635Z,19.27
2023-05-12T16:03:05.787Z,19.11
2023-05-12T16:05:38.122Z,19.52
2023-05-12T16:08:10.617Z,19.62
2023-05-12T16:10:41.144Z,19.42
2023-05-12T16:13:11.154Z,19.18
2023-05-12T16:15:41.119Z,19.17
2023-05-12T16:18:11.711Z,19.45
2023-05-12T16:20:41.984Z,19.22
2023-05-12T16:23:14.497Z,19.11
2023-05-12T16:25:44.779Z,18.91
2023-05-12T16:28:14.816Z,19.07
2023-05-12T16:30:45.267Z,19.00
2023-05-12T16:33:15.939Z,19.03
2023-05-12T16:35:45.890Z,18.67
2023-05-12T16:38:18.427Z,18.28
2023-05-12T16:40:48.486Z,18.01
2023-05-12T16:43:18.396Z,18.57
2023-05-12T16:45:48.469Z,20.01
2023-05-12T16:48:19.207Z,20.08
2023-05-12T16:50:49.119Z,19.40
2023-05-12T16:53:21.914Z,19.53
2023-05-12T16:55:51.873Z,19.26
2023-05-12T16:58:21.778Z,19.04
2023-05-12T17:00:51.941Z,18.90
2023-05-12T17:03:22.971Z,19.11
2023-05-12T17:05:53.145Z,18.86
2023-05-12T17:08:25.941Z,18.83
2023-05-12T17:10:56.028Z,19.79
2023-05-12T17:13:26.086Z,20.33
2023-05-12T17:15:56.602Z,21.12
2023-05-12T17:18:26.972Z,20.66
2023-05-12T17:20:56.940Z,20.24
2023-05-12T17:23:29.622Z,19.96
2023-05-12T17:25:59.665Z,18.97
2023-05-12T17:28:29.876Z,18.67
2023-05-12T17:31:01.512Z,18.45
2023-05-12T17:33:31.682Z,18.36
2023-05-12T17:36:12.165Z,18.22
2023-05-12T17:38:45.750Z,18.08
2023-05-12T17:41:16.378Z,17.85
2023-05-12T17:43:46.402Z,17.65
2023-05-12T17:46:16.871Z,17.67
2023-05-12T17:48:46.872Z,17.42
2023-05-12T17:51:17.086Z,17.37
2023-05-12T17:53:49.604Z,17.10
2023-05-12T17:56:19.605Z,17.00
2023-05-12T17:58:49.856Z,16.90
2023-05-12T18:01:19.943Z,16.74
2023-05-12T18:03:50.085Z,16.66
2023-05-12T18:06:20.335Z,16.58
2023-05-12T18:08:53.337Z,16.51
2023-05-12T18:11:23.386Z,16.32
2023-05-12T18:13:53.936Z,16.17
2023-05-12T18:16:29.195Z,16.10
2023-05-12T18:18:59.595Z,15.96
2023-05-12T18:21:29.674Z,15.81
2023-05-12T18:24:02.268Z,15.86
2023-05-12T18:26:32.870Z,15.77
2023-05-12T18:29:02.913Z,15.69
2023-05-12T18:31:32.891Z,15.64
2023-05-12T18:34:02.956Z,15.60
2023-05-12T18:36:32.956Z,15.58
2023-05-12T18:39:06.778Z,15.52
2023-05-12T18:41:36.772Z,15.39
2023-05-12T18:44:08.904Z,15.41
2023-05-12T18:46:39.175Z,15.30
2023-05-12T18:49:10.311Z,15.27
2023-05-12T18:51:49.818Z,15.31
2023-05-12T18:54:29.041Z,15.25
2023-05-12T18:56:59.268Z,15.20
2023-05-12T18:59:29.407Z,15.23
2023-05-12T19:01:59.618Z,15.18
2023-05-12T19:04:29.869Z,15.14
2023-05-12T19:07:00.002Z,15.13
2023-05-12T19:09:32.769Z,15.18
2023-05-12T19:12:03.825Z,15.22
2023-05-12T19:14:34.895Z,15.18
2023-05-12T19:17:04.944Z,15.18
2023-05-12T19:19:35.100Z,15.16
2023-05-12T19:22:05.664Z,15.22
2023-05-12T19:24:38.522Z,15.06
2023-05-12T19:27:11.133Z,15.10
2023-05-12T19:29:42.350Z,15.13
2023-05-12T19:32:13.486Z,15.16
2023-05-12T19:34:43.661Z,15.21
2023-05-12T19:37:13.832Z,15.07
2023-05-12T19:39:46.395Z,15.12
2023-05-12T19:42:16.449Z,15.08
2023-05-12T19:44:46.558Z,15.07
2023-05-12T19:47:16.708Z,15.17
2023-05-12T19:49:46.702Z,15.08
2023-05-12T19:52:16.850Z,15.08
2023-05-12T19:54:49.703Z,14.96
2023-05-12T19:57:20.046Z,15.00
2023-05-12T19:59:50.137Z,15.00
2023-05-12T20:02:20.940Z,14.88
2023-05-12T20:04:50.975Z,14.78
2023-05-12T20:07:21.029Z,14.73
2023-05-12T20:09:53.656Z,14.71
2023-05-12T20:12:23.722Z,14.73
2023-05-12T20:14:53.626Z,14.77
2023-05-12T20:17:23.655Z,14.80
2023-05-12T20:19:53.803Z,14.71
2023-05-12T20:22:24.270Z,14.65
2023-05-12T20:24:59.644Z,14.58
2023-05-12T20:27:29.696Z,14.60
2023-05-12T20:29:59.776Z,14.57
2023-05-12T20:32:29.817Z,14.51
2023-05-12T20:34:59.910Z,14.49
2023-05-12T20:37:29.950Z,14.40
2023-05-12T20:40:02.688Z,14.41
2023-05-12T20:42:32.672Z,14.43
2023-05-12T20:45:02.648Z,14.39
2023-05-12T20:47:33.617Z,14.24
2023-05-12T20:50:05.735Z,14.23
2023-05-12T20:52:35.908Z,14.29
2023-05-12T20:55:09.883Z,14.40
2023-05-12T20:57:40.320Z,14.38
2023-05-12T21:00:11.965Z,14.31
2023-05-12T21:02:42.683Z,14.34
2023-05-12T21:05:12.735Z,14.41
2023-05-12T21:07:42.757Z,14.34
2023-05-12T21:10:15.497Z,14.27
2023-05-12T21:12:45.516Z,14.23
2023-05-12T21:15:15.769Z,14.14
2023-05-12T21:17:45.817Z,14.13
2023-05-12T21:20:16.077Z,14.18
2023-05-12T21:22:46.100Z,14.02
2023-05-12T21:25:18.752Z,14.11
2023-05-12T21:27:48.658Z,14.01
2023-05-12T21:30:18.881Z,13.99
2023-05-12T21:32:49.110Z,13.94
2023-05-12T21:35:19.218Z,13.86
2023-05-12T21:37:49.686Z,13.87
2023-05-12T21:40:22.552Z,13.95
2023-05-12T21:42:52.750Z,13.86
2023-05-12T21:45:23.031Z,14.02
2023-05-12T21:47:53.321Z,13.99
2023-05-12T21:50:23.683Z,14.05
2023-05-12T21:52:53.689Z,14.05
2023-05-12T21:55:26.559Z,14.02
2023-05-12T21:57:56.707Z,13.95
2023-05-12T22:00:27.025Z,13.97
2023-05-12T22:02:57.089Z,13.95
2023-05-12T22:05:27.331Z,13.95
2023-05-12T22:07:57.473Z,13.94
2023-05-12T22:10:30.611Z,14.06
2023-05-12T22:13:00.578Z,13.98
2023-05-12T22:15:30.857Z,14.02
2023-05-12T22:18:00.895Z,14.04
2023-05-12T22:20:31.016Z,14.00
2023-05-12T22:23:01.057Z,13.98
2023-05-12T22:25:33.705Z,14.07
2023-05-12T22:28:04.853Z,14.04
2023-05-12T22:30:36.588Z,14.06
2023-05-12T22:33:06.801Z,14.04
2023-05-12T22:35:36.990Z,14.06
2023-05-12T22:38:07.023Z,14.15
2023-05-12T22:40:39.553Z,14.10
2023-05-12T22:43:09.782Z,14.21
2023-05-12T22:45:39.771Z,14.20
2023-05-12T22:48:09.703Z,14.19
2023-05-12T22:50:39.657Z,14.29
2023-05-12T22:53:09.685Z,14.21
2023-05-12T22:55:42.263Z,14.23
2023-05-12T22:58:12.727Z,14.23
2023-05-12T23:00:42.686Z,14.22
2023-05-12T23:03:12.667Z,14.24
2023-05-12T23:05:42.650Z,14.21
2023-05-12T23:08:12.608Z,14.27
2023-05-12T23:10:45.126Z,14.17
2023-05-12T23:13:15.025Z,14.15
2023-05-12T23:15:44.991Z,14.04
2023-05-12T23:18:14.909Z,13.94
2023-05-12T23:20:44.813Z,14.02
2023-05-12T23:23:14.798Z,13.90
2023-05-12T23:25:47.301Z,13.89
2023-05-12T23:28:17.249Z,13.89
2023-05-12T23:30:47.191Z,13.84
2023-05-12T23:33:17.394Z,13.76
2023-05-12T23:35:47.505Z,13.69
2023-05-12T23:38:17.483Z,13.69
2023-05-12T23:40:50.303Z,13.69
2023-05-12T23:43:20.251Z,13.75
2023-05-12T23:45:50.465Z,13.69
2023-05-12T23:48:20.462Z,13.67
2023-05-12T23:50:50.527Z,13.59
2023-05-12T23:53:20.535Z,13.59
2023-05-12T23:55:53.068Z,13.54
2023-05-12T23:58:23.027Z,13.54
